Time;durP1;ratioP1;P1;durP2;ratioP2;P2;SDS_P1;SDS_P2;PMS_P1;PMS_P2;Temp;Humidity;BMP_temperature;BMP_pressure;BME280_temperature;BME280_humidity;BME280_pressure;Samples;Min_cycle;Max_cycle;Signal;HPM_P1;HPM_P2
2023/09/28 00:01:02;;;;;;;1999.90;999.90;;;;;;;;;;4974561;28;20035;-62
2023/09/28 00:03:29;;;;;;;1999.90;999.90;;;;;;;;;;4974099;28;20453;-67
2023/09/28 00:05:55;;;;;;;1999.90;999.90;;;;;;;;;;4956534;28;20399;-73
2023/09/28 00:08:21;;;;;;;1999.90;999.90;;;;;;;;;;4974330;28;20050;-66
2023/09/28 00:10:47;;;;;;;1999.90;999.90;;;;;;;;;;4974400;28;20042;-66
2023/09/28 00:13:13;;;;;;;1999.90;999.90;;;;;;;;;;4974214;28;20042;-66
2023/09/28 00:15:39;;;;;;;1999.90;999.90;;;;;;;;;;4974550;28;20027;-64
2023/09/28 00:18:05;;;;;;;1999.90;999.90;;;;;;;;;;4974606;28;20158;-63
2023/09/28 00:20:31;;;;;;;1999.90;999.90;;;;;;;;;;4974064;28;20042;-62
2023/09/28 00:22:58;;;;;;;1999.90;999.90;;;;;;;;;;4974055;28;20027;-63
2023/09/28 00:25:24;;;;;;;1999.90;999.90;;;;;;;;;;4974395;28;20027;-63
2023/09/28 00:27:52;;;;;;;1999.90;999.90;;;;;;;;;;4973936;28;20041;-71
2023/09/28 00:30:21;;;;;;;1999.90;999.90;;;;;;;;;;4973695;28;20027;-63
2023/09/28 00:32:48;;;;;;;1999.90;999.90;;;;;;;;;;4974044;28;20027;-64
2023/09/28 00:35:14;;;;;;;1999.90;999.90;;;;;;;;;;4973928;28;20023;-63
2023/09/28 00:37:41;;;;;;;1999.90;999.90;;;;;;;;;;4973626;28;20113;-64
2023/09/28 00:40:16;;;;;;;1999.90;999.90;;;;;;;;;;4973986;28;20089;-66
2023/09/28 00:42:43;;;;;;;1999.90;999.90;;;;;;;;;;4973818;28;20023;-73
2023/09/28 00:45:09;;;;;;;1999.90;999.90;;;;;;;;;;4973972;28;20026;-62
2023/09/28 00:47:38;;;;;;;1999.90;999.90;;;;;;;;;;4973842;28;20038;-67
2023/09/28 00:50:09;;;;;;;1999.90;999.90;;;;;;;;;;4973775;28;20034;-62
2023/09/28 00:52:35;;;;;;;1999.90;999.90;;;;;;;;;;4973672;28;20035;-67
2023/09/28 00:55:01;;;;;;;1999.90;999.90;;;;;;;;;;4973656;28;20029;-62
2023/09/28 00:57:27;;;;;;;1999.90;999.90;;;;;;;;;;4973302;28;20093;-62
2023/09/28 00:59:54;;;;;;;1999.90;999.90;;;;;;;;;;4973299;28;20027;-68
2023/09/28 01:02:20;;;;;;;1999.90;999.90;;;;;;;;;;4973180;28;20106;-74
2023/09/28 01:04:48;;;;;;;1999.90;999.90;;;;;;;;;;4973205;28;20780;-66
2023/09/28 01:07:14;;;;;;;1999.90;999.90;;;;;;;;;;4973341;28;20030;-64
2023/09/28 01:09:40;;;;;;;1999.90;999.90;;;;;;;;;;4973310;28;20027;-68
2023/09/28 01:12:08;;;;;;;1999.90;999.90;;;;;;;;;;4973165;28;20034;-63
2023/09/28 01:14:35;;;;;;;1999.90;999.90;;;;;;;;;;4972644;28;20533;-68
2023/09/28 01:17:01;;;;;;;1999.90;999.90;;;;;;;;;;4973236;28;20038;-63
2023/09/28 01:19:27;;;;;;;1999.90;999.90;;;;;;;;;;4973198;28;20035;-67
2023/09/28 01:21:53;;;;;;;1999.90;999.90;;;;;;;;;;4973057;28;20038;-72
2023/09/28 01:24:20;;;;;;;1999.90;999.90;;;;;;;;;;4972812;28;20038;-62
2023/09/28 01:26:46;;;;;;;1999.90;999.90;;;;;;;;;;4972954;28;20058;-68
2023/09/28 01:29:12;;;;;;;1999.90;999.90;;;;;;;;;;4972793;28;20023;-67
2023/09/28 01:31:38;;;;;;;1999.90;999.90;;;;;;;;;;4973277;28;20061;-61
2023/09/28 01:34:04;;;;;;;1999.90;999.90;;;;;;;;;;4973079;28;20034;-66
2023/09/28 01:36:30;;;;;;;1999.90;999.90;;;;;;;;;;4973049;28;20038;-62
2023/09/28 01:38:58;;;;;;;1999.90;999.90;;;;;;;;;;4973211;28;20395;-62
2023/09/28 01:41:24;;;;;;;1999.90;999.90;;;;;;;;;;4972845;28;20034;-73
2023/09/28 01:43:50;;;;;;;1999.90;999.90;;;;;;;;;;4972990;28;20109;-66
2023/09/28 01:46:16;;;;;;;1999.90;999.90;;;;;;;;;;4973112;28;20087;-65
2023/09/28 01:48:42;;;;;;;1999.90;999.90;;;;;;;;;;4972815;28;20511;-63
2023/09/28 01:51:08;;;;;;;1999.90;999.90;;;;;;;;;;4973199;28;20089;-74
2023/09/28 01:53:34;;;;;;;1999.90;999.90;;;;;;;;;;4972551;28;20022;-63
2023/09/28 01:56:02;;;;;;;1999.90;999.90;;;;;;;;;;4971979;28;20491;-62
2023/09/28 01:58:28;;;;;;;1999.90;999.90;;;;;;;;;;4972392;28;20027;-72
2023/09/28 02:00:54;;;;;;;1999.90;999.90;;;;;;;;;;4972082;28;20502;-64
2023/09/28 02:03:21;;;;;;;1999.90;999.90;;;;;;;;;;4972218;28;20035;-64
2023/09/28 02:05:48;;;;;;;1999.90;999.90;;;;;;;;;;4971797;28;20074;-72
2023/09/28 02:08:15;;;;;;;1999.90;999.90;;;;;;;;;;4972567;28;20023;-68
2023/09/28 02:10:41;;;;;;;1999.90;999.90;;;;;;;;;;4972462;28;20035;-73
2023/09/28 02:13:07;;;;;;;1999.90;999.90;;;;;;;;;;4972523;28;20134;-74
2023/09/28 02:15:33;;;;;;;1999.90;999.90;;;;;;;;;;4972489;28;20097;-66
2023/09/28 02:17:59;;;;;;;1999.90;999.90;;;;;;;;;;4972269;28;20481;-68
2023/09/28 02:20:25;;;;;;;1999.90;999.90;;;;;;;;;;4972447;28;20027;-63
2023/09/28 02:22:54;;;;;;;1999.90;999.90;;;;;;;;;;4972433;28;20031;-73
2023/09/28 02:25:21;;;;;;;1999.90;999.90;;;;;;;;;;4971975;28;20026;-73
2023/09/28 02:27:48;;;;;;;1999.90;999.90;;;;;;;;;;4972242;28;20085;-70
2023/09/28 02:30:17;;;;;;;1999.90;999.90;;;;;;;;;;4971722;28;20027;-68
2023/09/28 02:32:43;;;;;;;1999.90;999.90;;;;;;;;;;4971676;28;20392;-62
2023/09/28 02:35:11;;;;;;;1999.90;999.90;;;;;;;;;;4971947;28;20026;-66
2023/09/28 02:37:37;;;;;;;1999.90;999.90;;;;;;;;;;4972068;28;20030;-74
2023/09/28 02:40:09;;;;;;;1999.90;999.90;;;;;;;;;;4972209;28;20202;-64
2023/09/28 02:42:35;;;;;;;1999.90;999.90;;;;;;;;;;4972112;28;20031;-63
2023/09/28 02:45:04;;;;;;;1999.90;999.90;;;;;;;;;;4971974;28;20431;-64
2023/09/28 02:47:30;;;;;;;1999.90;999.90;;;;;;;;;;4971941;28;20395;-64
2023/09/28 02:49:57;;;;;;;1999.90;999.90;;;;;;;;;;4953866;28;20066;-73
2023/09/28 02:52:23;;;;;;;1999.90;999.90;;;;;;;;;;4971908;28;20679;-74
2023/09/28 02:54:49;;;;;;;1999.90;999.90;;;;;;;;;;4971944;28;20042;-62
2023/09/28 02:57:15;;;;;;;1999.90;999.90;;;;;;;;;;4953906;28;20050;-72
2023/09/28 02:59:41;;;;;;;1999.90;999.90;;;;;;;;;;4971984;28;20033;-63
2023/09/28 03:02:09;;;;;;;1999.90;999.90;;;;;;;;;;4971964;28;20019;-67
2023/09/28 03:04:35;;;;;;;1999.90;999.90;;;;;;;;;;4971690;28;20030;-63
2023/09/28 03:07:01;;;;;;;1999.90;999.90;;;;;;;;;;4971856;28;20441;-69
2023/09/28 03:09:27;;;;;;;1999.90;999.90;;;;;;;;;;4971883;28;20038;-64
2023/09/28 03:11:57;;;;;;;1999.90;999.90;;;;;;;;;;4971817;28;20049;-64
2023/09/28 03:14:24;;;;;;;1999.90;999.90;;;;;;;;;;4971815;28;20034;-65
2023/09/28 03:16:50;;;;;;;1999.90;999.90;;;;;;;;;;4971719;28;20026;-67
2023/09/28 03:19:16;;;;;;;1999.90;999.90;;;;;;;;;;4971658;28;20103;-65
2023/09/28 03:21:44;;;;;;;1999.90;999.90;;;;;;;;;;4971361;28;20052;-65
2023/09/28 03:24:10;;;;;;;1999.90;999.90;;;;;;;;;;4971277;28;20356;-63
2023/09/28 03:26:37;;;;;;;1999.90;999.90;;;;;;;;;;4971290;28;20110;-72
2023/09/28 03:29:03;;;;;;;1999.90;999.90;;;;;;;;;;4971299;28;20019;-66
2023/09/28 03:31:32;;;;;;;1999.90;999.90;;;;;;;;;;4971036;28;20394;-64
2023/09/28 03:33:58;;;;;;;1999.90;999.90;;;;;;;;;;4971102;28;20055;-63
2023/09/28 03:36:25;;;;;;;1999.90;999.90;;;;;;;;;;4970879;28;20078;-72
2023/09/28 03:38:51;;;;;;;1999.90;999.90;;;;;;;;;;4956512;28;20041;-64
2023/09/28 03:41:17;;;;;;;1999.90;999.90;;;;;;;;;;4975262;28;20035;-62
2023/09/28 03:43:44;;;;;;;1999.90;999.90;;;;;;;;;;4956865;28;20038;-63
2023/09/28 03:46:11;;;;;;;1999.90;999.90;;;;;;;;;;4974529;28;20062;-74
2023/09/28 03:48:37;;;;;;;1999.90;999.90;;;;;;;;;;4974697;28;20027;-63
2023/09/28 03:51:03;;;;;;;1999.90;999.90;;;;;;;;;;4974833;28;20035;-63
2023/09/28 03:53:31;;;;;;;1999.90;999.90;;;;;;;;;;4974777;28;20105;-62
2023/09/28 03:55:57;;;;;;;1999.90;999.90;;;;;;;;;;4974516;28;20776;-64
2023/09/28 03:58:23;;;;;;;1999.90;999.90;;;;;;;;;;4974886;28;20031;-66
2023/09/28 04:00:49;;;;;;;1999.90;999.90;;;;;;;;;;4974829;28;20026;-63
2023/09/28 04:03:15;;;;;;;1999.90;999.90;;;;;;;;;;4974619;28;20023;-62
2023/09/28 04:05:41;;;;;;;1999.90;999.90;;;;;;;;;;4974523;28;20038;-63
2023/09/28 04:08:07;;;;;;;1999.90;999.90;;;;;;;;;;4974312;28;20467;-63
2023/09/28 04:10:33;;;;;;;1999.90;999.90;;;;;;;;;;4955571;28;20398;-66
2023/09/28 04:13:01;;;;;;;1999.90;999.90;;;;;;;;;;4974564;28;20026;-63
2023/09/28 04:15:27;;;;;;;1999.90;999.90;;;;;;;;;;4974243;28;20359;-74
2023/09/28 04:17:53;;;;;;;1999.90;999.90;;;;;;;;;;4974576;28;20099;-63
2023/09/28 04:20:19;;;;;;;1999.90;999.90;;;;;;;;;;4974164;28;20720;-62
2023/09/28 04:22:45;;;;;;;1999.90;999.90;;;;;;;;;;4974076;28;20039;-73
2023/09/28 04:25:11;;;;;;;1999.90;999.90;;;;;;;;;;4974238;28;20035;-70
2023/09/28 04:27:38;;;;;;;1999.90;999.90;;;;;;;;;;4974094;28;20035;-68
2023/09/28 04:30:04;;;;;;;1999.90;999.90;;;;;;;;;;4974294;28;20030;-71
2023/09/28 04:32:31;;;;;;;1999.90;999.90;;;;;;;;;;4974093;28;20538;-65
2023/09/28 04:34:57;;;;;;;1999.90;999.90;;;;;;;;;;4974193;28;20122;-65
2023/09/28 04:37:25;;;;;;;1999.90;999.90;;;;;;;;;;4974051;28;20023;-72
2023/09/28 04:39:53;;;;;;;1999.90;999.90;;;;;;;;;;4974389;28;20023;-62
2023/09/28 04:42:20;;;;;;;1999.90;999.90;;;;;;;;;;4973761;28;20041;-63
2023/09/28 04:44:46;;;;;;;1999.90;999.90;;;;;;;;;;4973857;28;20061;-64
2023/09/28 04:47:12;;;;;;;1999.90;999.90;;;;;;;;;;4974133;28;20558;-71
2023/09/28 04:49:42;;;;;;;1999.90;999.90;;;;;;;;;;4972670;28;20054;-68
2023/09/28 04:52:10;;;;;;;1999.90;999.90;;;;;;;;;;4973204;28;20106;-69
2023/09/28 04:54:36;;;;;;;1999.90;999.90;;;;;;;;;;4973330;28;20045;-64
2023/09/28 04:57:02;;;;;;;1999.90;999.90;;;;;;;;;;4973432;28;20142;-65
2023/09/28 04:59:28;;;;;;;1999.90;999.90;;;;;;;;;;4973646;28;20143;-63
2023/09/28 05:01:55;;;;;;;1999.90;999.90;;;;;;;;;;4973629;28;20483;-62
2023/09/28 05:04:21;;;;;;;1999.90;999.90;;;;;;;;;;4973333;28;20118;-62
2023/09/28 05:06:47;;;;;;;1999.90;999.90;;;;;;;;;;4973151;28;20023;-66
2023/09/28 05:09:13;;;;;;;1999.90;999.90;;;;;;;;;;4973240;28;20034;-73
2023/09/28 05:11:39;;;;;;;1999.90;999.90;;;;;;;;;;4973175;28;20043;-64
2023/09/28 05:14:05;;;;;;;1999.90;999.90;;;;;;;;;;4973360;28;20034;-69
2023/09/28 05:16:33;;;;;;;1999.90;999.90;;;;;;;;;;4973182;28;20051;-62
2023/09/28 05:18:59;;;;;;;1999.90;999.90;;;;;;;;;;4973451;28;20019;-74
2023/09/28 05:21:25;;;;;;;1999.90;999.90;;;;;;;;;;4973367;28;20030;-63
2023/09/28 05:23:51;;;;;;;1999.90;999.90;;;;;;;;;;4973341;28;20102;-65
2023/09/28 05:26:17;;;;;;;1999.90;999.90;;;;;;;;;;4972705;28;20042;-65
2023/09/28 05:28:43;;;;;;;1999.90;999.90;;;;;;;;;;4954699;28;20031;-73
2023/09/28 05:31:09;;;;;;;1999.90;999.90;;;;;;;;;;4973043;28;20117;-70
2023/09/28 05:33:35;;;;;;;1999.90;999.90;;;;;;;;;;4972988;28;20085;-67
2023/09/28 05:36:02;;;;;;;1999.90;999.90;;;;;;;;;;4972975;28;20729;-72
2023/09/28 05:38:28;;;;;;;1999.90;999.90;;;;;;;;;;4972840;28;20471;-73
2023/09/28 05:40:55;;;;;;;1999.90;999.90;;;;;;;;;;4972419;28;20038;-72
2023/09/28 05:43:22;;;;;;;1999.90;999.90;;;;;;;;;;4973104;28;20391;-65
2023/09/28 05:45:48;;;;;;;1999.90;999.90;;;;;;;;;;4972904;28;20026;-73
2023/09/28 05:48:15;;;;;;;1999.90;999.90;;;;;;;;;;4972908;28;20026;-64
2023/09/28 05:50:41;;;;;;;1999.90;999.90;;;;;;;;;;4972685;28;20027;-65
2023/09/28 05:53:07;;;;;;;1999.90;999.90;;;;;;;;;;4972514;28;20031;-65
2023/09/28 05:55:33;;;;;;;1999.90;999.90;;;;;;;;;;4972175;28;20043;-66
2023/09/28 05:57:59;;;;;;;1999.90;999.90;;;;;;;;;;4972240;28;20058;-64
2023/09/28 06:00:25;;;;;;;1999.90;999.90;;;;;;;;;;4971983;28;20019;-62
2023/09/28 06:02:51;;;;;;;1999.90;999.90;;;;;;;;;;4972067;28;20027;-66
2023/09/28 06:05:17;;;;;;;1999.90;999.90;;;;;;;;;;4972222;28;20024;-63
2023/09/28 06:07:44;;;;;;;1999.90;999.90;;;;;;;;;;4972348;28;20105;-66
2023/09/28 06:10:10;;;;;;;1999.90;999.90;;;;;;;;;;4972090;28;20038;-70
2023/09/28 06:12:36;;;;;;;1999.90;999.90;;;;;;;;;;4972188;28;20031;-66
2023/09/28 06:15:04;;;;;;;1999.90;999.90;;;;;;;;;;4972100;28;20086;-73
2023/09/28 06:17:30;;;;;;;1999.90;999.90;;;;;;;;;;4955338;28;20026;-69
2023/09/28 06:19:56;;;;;;;1999.90;999.90;;;;;;;;;;4972859;28;20031;-62
2023/09/28 06:22:22;;;;;;;1999.90;999.90;;;;;;;;;;4972070;28;20022;-73
2023/09/28 06:24:48;;;;;;;1999.90;999.90;;;;;;;;;;4971847;28;20106;-67
2023/09/28 06:27:15;;;;;;;1999.90;999.90;;;;;;;;;;4971615;28;20122;-73
2023/09/28 06:29:41;;;;;;;1999.90;999.90;;;;;;;;;;4971599;28;20022;-70
2023/09/28 06:32:07;;;;;;;1999.90;999.90;;;;;;;;;;4953302;28;20385;-63
2023/09/28 06:34:33;;;;;;;1999.90;999.90;;;;;;;;;;4971387;28;20046;-74
2023/09/28 06:36:59;;;;;;;1999.90;999.90;;;;;;;;;;4971252;28;20077;-68
2023/09/28 06:39:25;;;;;;;1999.90;999.90;;;;;;;;;;4971494;28;20077;-63
2023/09/28 06:41:51;;;;;;;1999.90;999.90;;;;;;;;;;4971392;28;20065;-66
2023/09/28 06:44:17;;;;;;;1999.90;999.90;;;;;;;;;;4971660;28;20038;-69
2023/09/28 06:46:44;;;;;;;1999.90;999.90;;;;;;;;;;4971319;28;20031;-68
2023/09/28 06:49:11;;;;;;;1999.90;999.90;;;;;;;;;;4971516;28;20114;-72
2023/09/28 06:51:37;;;;;;;1999.90;999.90;;;;;;;;;;4971332;28;20030;-75
2023/09/28 06:54:03;;;;;;;1999.90;999.90;;;;;;;;;;4954230;28;20031;-72
2023/09/28 06:56:30;;;;;;;1999.90;999.90;;;;;;;;;;4970986;28;20051;-72
2023/09/28 06:58:56;;;;;;;1999.90;999.90;;;;;;;;;;4971585;28;20479;-69
2023/09/28 07:01:22;;;;;;;1999.90;999.90;;;;;;;;;;4971579;28;20031;-63
2023/09/28 07:03:52;;;;;;;1999.90;999.90;;;;;;;;;;4971342;28;20031;-62
2023/09/28 07:06:18;;;;;;;1999.90;999.90;;;;;;;;;;4971532;28;20029;-66
2023/09/28 07:08:44;;;;;;;1999.90;999.90;;;;;;;;;;4970570;28;20753;-61
2023/09/28 07:11:11;;;;;;;1999.90;999.90;;;;;;;;;;4970680;28;20101;-65
2023/09/28 07:13:37;;;;;;;1999.90;999.90;;;;;;;;;;4972949;28;20027;-69
2023/09/28 07:16:03;;;;;;;1999.90;999.90;;;;;;;;;;4975193;28;20439;-65
2023/09/28 07:18:29;;;;;;;1999.90;999.90;;;;;;;;;;4975032;28;20471;-68
2023/09/28 07:20:55;;;;;;;1999.90;999.90;;;;;;;;;;4974800;28;20056;-69
2023/09/28 07:23:21;;;;;;;1999.90;999.90;;;;;;;;;;4974556;28;20463;-72
2023/09/28 07:25:50;;;;;;;1999.90;999.90;;;;;;;;;;4974478;28;20034;-66
2023/09/28 07:28:16;;;;;;;1999.90;999.90;;;;;;;;;;4974163;28;20489;-68
2023/09/28 07:30:42;;;;;;;1999.90;999.90;;;;;;;;;;4974752;28;20557;-72
2023/09/28 07:33:12;;;;;;;1999.90;999.90;;;;;;;;;;4974733;28;20057;-70
2023/09/28 07:35:39;;;;;;;1999.90;999.90;;;;;;;;;;4974519;28;20031;-67
2023/09/28 07:38:05;;;;;;;1999.90;999.90;;;;;;;;;;4974567;28;20035;-70
2023/09/28 07:40:31;;;;;;;1999.90;999.90;;;;;;;;;;4974761;28;20058;-64
2023/09/28 07:42:57;;;;;;;1999.90;999.90;;;;;;;;;;4974068;28;20031;-71
2023/09/28 07:45:23;;;;;;;1999.90;999.90;;;;;;;;;;4973707;28;20030;-69
2023/09/28 07:47:49;;;;;;;1999.90;999.90;;;;;;;;;;4974753;28;20031;-68
2023/09/28 07:50:15;;;;;;;1999.90;999.90;;;;;;;;;;4974808;28;20030;-69
2023/09/28 07:52:42;;;;;;;1999.90;999.90;;;;;;;;;;4974456;28;20030;-66
2023/09/28 07:55:08;;;;;;;1999.90;999.90;;;;;;;;;;4973628;28;20482;-62
2023/09/28 07:57:34;;;;;;;1999.90;999.90;;;;;;;;;;4973979;28;20078;-67
2023/09/28 08:00:00;;;;;;;1999.90;999.90;;;;;;;;;;4974376;28;20027;-68
2023/09/28 08:02:27;;;;;;;1999.90;999.90;;;;;;;;;;4974143;28;20375;-70
2023/09/28 08:04:53;;;;;;;1999.90;999.90;;;;;;;;;;4973513;28;20035;-64
2023/09/28 08:07:19;;;;;;;1999.90;999.90;;;;;;;;;;4954958;28;20034;-72
2023/09/28 08:09:47;;;;;;;1999.90;999.90;;;;;;;;;;4973692;28;20074;-70
2023/09/28 08:12:13;;;;;;;1999.90;999.90;;;;;;;;;;4973800;28;20038;-70
2023/09/28 08:14:39;;;;;;;1999.90;999.90;;;;;;;;;;4973944;28;20078;-65
2023/09/28 08:17:09;;;;;;;1999.90;999.90;;;;;;;;;;4973579;28;20101;-62
2023/09/28 08:19:36;;;;;;;1999.90;999.90;;;;;;;;;;4973574;28;20023;-68
2023/09/28 08:22:03;;;;;;;1999.90;999.90;;;;;;;;;;4973819;28;20023;-71
2023/09/28 08:24:29;;;;;;;1999.90;999.90;;;;;;;;;;4973205;28;20093;-72
2023/09/28 08:26:55;;;;;;;1999.90;999.90;;;;;;;;;;4973410;28;20537;-69
2023/09/28 08:29:22;;;;;;;1999.90;999.90;;;;;;;;;;4973724;28;20041;-63
2023/09/28 08:31:48;;;;;;;1999.90;999.90;;;;;;;;;;4973519;28;20117;-66
2023/09/28 08:34:14;;;;;;;1999.90;999.90;;;;;;;;;;4973794;28;20122;-72
2023/09/28 08:36:40;;;;;;;1999.90;999.90;;;;;;;;;;4973378;28;20462;-70
2023/09/28 08:39:06;;;;;;;1999.90;999.90;;;;;;;;;;4973832;28;20122;-67
2023/09/28 08:41:54;;;;;;;1999.90;999.90;;;;;;;;;;4973189;28;20038;-68
2023/09/28 08:44:25;;;;;;;1999.90;999.90;;;;;;;;;;4972985;28;20473;-72
2023/09/28 08:46:55;;;;;;;1999.90;999.90;;;;;;;;;;4972875;28;20125;-64
2023/09/28 08:49:21;;;;;;;1999.90;999.90;;;;;;;;;;4955474;28;20077;-71
2023/09/28 08:51:48;;;;;;;1999.90;999.90;;;;;;;;;;4973231;28;20125;-72
2023/09/28 08:54:15;;;;;;;1999.90;999.90;;;;;;;;;;4972988;28;20023;-65
2023/09/28 08:56:46;;;;;;;1999.90;999.90;;;;;;;;;;4972975;28;20055;-72
2023/09/28 08:59:13;;;;;;;1999.90;999.90;;;;;;;;;;4972608;28;20081;-67
2023/09/28 09:01:39;;;;;;;1999.90;999.90;;;;;;;;;;4973121;28;20085;-69
2023/09/28 09:04:05;;;;;;;1999.90;999.90;;;;;;;;;;4973147;28;20018;-74
2023/09/28 09:06:31;;;;;;;1999.90;999.90;;;;;;;;;;4973329;28;20035;-71
2023/09/28 09:09:06;;;;;;;1999.90;999.90;;;;;;;;;;4954566;28;20391;-72
2023/09/28 09:11:37;;;;;;;1999.90;999.90;;;;;;;;;;4972722;28;20501;-72
2023/09/28 09:14:03;;;;;;;1999.90;999.90;;;;;;;;;;4972343;28;20060;-68
2023/09/28 09:16:30;;;;;;;1999.90;999.90;;;;;;;;;;4972922;28;20031;-72
2023/09/28 09:18:57;;;;;;;1999.90;999.90;;;;;;;;;;4973067;28;20213;-66
2023/09/28 09:21:23;;;;;;;1999.90;999.90;;;;;;;;;;4972572;28;20094;-68
2023/09/28 09:24:05;;;;;;;1999.90;999.90;;;;;;;;;;4972656;28;20402;-72
2023/09/28 09:26:47;;;;;;;1999.90;999.90;;;;;;;;;;4972542;28;20752;-62
2023/09/28 09:29:14;;;;;;;1999.90;999.90;;;;;;;;;;4972731;28;20455;-66
2023/09/28 09:31:41;;;;;;;1999.90;999.90;;;;;;;;;;4972626;28;20073;-70
2023/09/28 09:34:16;;;;;;;1999.90;999.90;;;;;;;;;;4972705;28;20027;-68
2023/09/28 09:36:43;;;;;;;1999.90;999.90;;;;;;;;;;4971957;28;20497;-72
2023/09/28 09:39:21;;;;;;;1999.90;999.90;;;;;;;;;;4972462;28;20113;-73
2023/09/28 09:41:49;;;;;;;1999.90;999.90;;;;;;;;;;4972378;28;20053;-66
2023/09/28 09:44:18;;;;;;;1999.90;999.90;;;;;;;;;;4972160;28;20105;-72
2023/09/28 09:46:46;;;;;;;1999.90;999.90;;;;;;;;;;4971939;28;20023;-73
2023/09/28 09:49:13;;;;;;;1999.90;999.90;;;;;;;;;;4972252;28;20082;-73
2023/09/28 09:51:40;;;;;;;1999.90;999.90;;;;;;;;;;4965719;28;20454;-76
2023/09/28 09:54:08;;;;;;;1999.90;999.90;;;;;;;;;;4971640;28;20076;-71
2023/09/28 09:56:35;;;;;;;1999.90;999.90;;;;;;;;;;4971437;28;20047;-73
2023/09/28 09:59:03;;;;;;;1999.90;999.90;;;;;;;;;;4963081;28;20027;-75
2023/09/28 10:01:30;;;;;;;1999.90;999.90;;;;;;;;;;4933717;29;20028;-75
2023/09/28 10:03:57;;;;;;;1999.90;999.90;;;;;;;;;;4933256;29;20035;-74
2023/09/28 10:06:23;;;;;;;1999.90;999.90;;;;;;;;;;4933519;29;20031;-75
2023/09/28 10:08:50;;;;;;;1999.90;999.90;;;;;;;;;;4932882;29;20102;-67
2023/09/28 10:11:19;;;;;;;1999.90;999.90;;;;;;;;;;4933379;29;20520;-75
2023/09/28 10:13:48;;;;;;;1999.90;999.90;;;;;;;;;;4933816;29;20028;-68
2023/09/28 10:16:16;;;;;;;1999.90;999.90;;;;;;;;;;4933217;29;20106;-74
2023/09/28 10:18:44;;;;;;;1999.90;999.90;;;;;;;;;;4932968;29;20551;-74
2023/09/28 10:21:11;;;;;;;1999.90;999.90;;;;;;;;;;4935713;28;20046;-73
2023/09/28 10:23:37;;;;;;;1999.90;999.90;;;;;;;;;;4952742;29;20034;-65
2023/09/28 10:26:13;;;;;;;1999.90;999.90;;;;;;;;;;4935575;29;20086;-71
2023/09/28 10:28:58;;;;;;;1999.90;999.90;;;;;;;;;;4952404;29;20130;-71
2023/09/28 10:31:24;;;;;;;1999.90;999.90;;;;;;;;;;4952316;29;20146;-71
2023/09/28 10:33:59;;;;;;;1999.90;999.90;;;;;;;;;;4953325;29;20419;-73
2023/09/28 10:36:28;;;;;;;1999.90;999.90;;;;;;;;;;4952510;29;20023;-73
2023/09/28 10:39:15;;;;;;;1999.90;999.90;;;;;;;;;;4952203;29;20027;-68
2023/09/28 10:41:49;;;;;;;1999.90;999.90;;;;;;;;;;4952644;29;20039;-66
2023/09/28 10:44:19;;;;;;;1999.90;999.90;;;;;;;;;;4952395;29;20502;-71
2023/09/28 10:46:47;;;;;;;1999.90;999.90;;;;;;;;;;4951152;29;20035;-70
2023/09/28 10:49:15;;;;;;;1999.90;999.90;;;;;;;;;;4951692;29;20075;-72
2023/09/28 10:51:42;;;;;;;1999.90;999.90;;;;;;;;;;4951863;28;20499;-73
2023/09/28 10:54:08;;;;;;;1999.90;999.90;;;;;;;;;;4952045;29;20062;-72
2023/09/28 10:56:35;;;;;;;1999.90;999.90;;;;;;;;;;4941817;29;20122;-69
2023/09/28 10:59:04;;;;;;;1999.90;999.90;;;;;;;;;;4933110;29;20040;-74
2023/09/28 11:01:31;;;;;;;1999.90;999.90;;;;;;;;;;4932909;29;20123;-70
2023/09/28 11:03:57;;;;;;;1999.90;999.90;;;;;;;;;;4933137;29;20032;-69
2023/09/28 11:06:24;;;;;;;1999.90;999.90;;;;;;;;;;4932397;29;20110;-75
2023/09/28 11:08:50;;;;;;;1999.90;999.90;;;;;;;;;;4933049;29;20094;-68
2023/09/28 11:11:21;;;;;;;1999.90;999.90;;;;;;;;;;4932927;29;20086;-68
2023/09/28 11:13:48;;;;;;;1999.90;999.90;;;;;;;;;;4933111;29;20028;-69
2023/09/28 11:16:16;;;;;;;1999.90;999.90;;;;;;;;;;4932722;29;20035;-67
2023/09/28 11:18:42;;;;;;;1999.90;999.90;;;;;;;;;;4933366;29;20056;-67
2023/09/28 11:21:09;;;;;;;1999.90;999.90;;;;;;;;;;4932545;29;20504;-73
2023/09/28 11:23:35;;;;;;;1999.90;999.90;;;;;;;;;;4944207;28;20027;-64
2023/09/28 11:26:03;;;;;;;1999.90;999.90;;;;;;;;;;4970617;28;20046;-69
2023/09/28 11:28:29;;;;;;;1999.90;999.90;;;;;;;;;;4971033;28;20031;-71
2023/09/28 11:31:07;;;;;;;1999.90;999.90;;;;;;;;;;4965055;28;20392;-73
2023/09/28 11:33:34;;;;;;;1999.90;999.90;;;;;;;;;;4946053;29;20034;-73
2023/09/28 11:36:00;;;;;;;1999.90;999.90;;;;;;;;;;4949289;29;20043;-64
2023/09/28 11:38:26;;;;;;;1999.90;999.90;;;;;;;;;;4951473;29;20035;-64
2023/09/28 11:40:55;;;;;;;1999.90;999.90;;;;;;;;;;4951835;29;20106;-65
2023/09/28 11:43:22;;;;;;;1999.90;999.90;;;;;;;;;;4946125;29;20035;-64
2023/09/28 11:45:49;;;;;;;1999.90;999.90;;;;;;;;;;4933929;29;20028;-70
2023/09/28 11:48:19;;;;;;;1999.90;999.90;;;;;;;;;;4932747;29;20028;-68
2023/09/28 11:50:46;;;;;;;1999.90;999.90;;;;;;;;;;4932852;29;20369;-70
2023/09/28 11:53:12;;;;;;;1999.90;999.90;;;;;;;;;;4932711;29;20057;-66
2023/09/28 11:55:41;;;;;;;1999.90;999.90;;;;;;;;;;4932508;29;20048;-64
2023/09/28 11:58:11;;;;;;;1999.90;999.90;;;;;;;;;;4932830;29;20099;-70
2023/09/28 12:00:38;;;;;;;1999.90;999.90;;;;;;;;;;4936266;29;20028;-68
2023/09/28 12:03:04;;;;;;;1999.90;999.90;;;;;;;;;;4936100;29;20031;-68
2023/09/28 12:05:31;;;;;;;1999.90;999.90;;;;;;;;;;4936474;29;20492;-71
2023/09/28 12:07:58;;;;;;;1999.90;999.90;;;;;;;;;;4936356;29;20035;-70
2023/09/28 12:10:24;;;;;;;1999.90;999.90;;;;;;;;;;4936162;29;20044;-70
2023/09/28 12:12:50;;;;;;;1999.90;999.90;;;;;;;;;;4936232;29;20087;-69
2023/09/28 12:15:16;;;;;;;1999.90;999.90;;;;;;;;;;4935969;29;20488;-70
2023/09/28 12:17:43;;;;;;;1999.90;999.90;;;;;;;;;;4936230;29;20038;-72
2023/09/28 12:20:12;;;;;;;1999.90;999.90;;;;;;;;;;4935622;29;20408;-64
2023/09/28 12:22:39;;;;;;;1999.90;999.90;;;;;;;;;;4935551;29;20099;-70
2023/09/28 12:25:05;;;;;;;1999.90;999.90;;;;;;;;;;4935470;29;20031;-68
2023/09/28 12:27:32;;;;;;;1999.90;999.90;;;;;;;;;;4935599;29;20032;-73
2023/09/28 12:29:59;;;;;;;1999.90;999.90;;;;;;;;;;4935355;29;20031;-66
2023/09/28 12:32:26;;;;;;;1999.90;999.90;;;;;;;;;;4935373;29;20042;-69
2023/09/28 12:34:52;;;;;;;1999.90;999.90;;;;;;;;;;4918012;29;20377;-72
2023/09/28 12:37:18;;;;;;;1999.90;999.90;;;;;;;;;;4935249;29;20031;-65
2023/09/28 12:39:44;;;;;;;1999.90;999.90;;;;;;;;;;4934950;29;20035;-73
2023/09/28 12:42:14;;;;;;;1999.90;999.90;;;;;;;;;;4935530;29;20028;-70
2023/09/28 12:44:42;;;;;;;1999.90;999.90;;;;;;;;;;4935478;29;20087;-72
2023/09/28 12:47:08;;;;;;;1999.90;999.90;;;;;;;;;;4935256;29;20032;-64
2023/09/28 12:49:34;;;;;;;1999.90;999.90;;;;;;;;;;4935424;29;20031;-66
2023/09/28 12:52:01;;;;;;;1999.90;999.90;;;;;;;;;;4935594;29;20034;-71
2023/09/28 12:54:29;;;;;;;1999.90;999.90;;;;;;;;;;4935015;29;20075;-67
2023/09/28 12:56:55;;;;;;;1999.90;999.90;;;;;;;;;;4934912;29;20527;-72
2023/09/28 12:59:21;;;;;;;1999.90;999.90;;;;;;;;;;4934941;29;20515;-71
2023/09/28 13:01:48;;;;;;;1999.90;999.90;;;;;;;;;;4935034;29;20027;-65
2023/09/28 13:04:14;;;;;;;1999.90;999.90;;;;;;;;;;4934727;29;20027;-73
2023/09/28 13:06:41;;;;;;;1999.90;999.90;;;;;;;;;;4934693;29;20034;-66
2023/09/28 13:09:07;;;;;;;1999.90;999.90;;;;;;;;;;4934375;29;20032;-65
2023/09/28 13:11:34;;;;;;;1999.90;999.90;;;;;;;;;;4934043;29;20114;-66
2023/09/28 13:14:00;;;;;;;1999.90;999.90;;;;;;;;;;4937101;29;20475;-70
2023/09/28 13:16:28;;;;;;;1999.90;999.90;;;;;;;;;;4946945;29;20027;-66
2023/09/28 13:18:55;;;;;;;1999.90;999.90;;;;;;;;;;4943333;29;20087;-72
2023/09/28 13:21:23;;;;;;;1999.90;999.90;;;;;;;;;;4941162;29;20070;-68
2023/09/28 13:23:49;;;;;;;1999.90;999.90;;;;;;;;;;4943756;29;20459;-70
2023/09/28 13:26:15;;;;;;;1999.90;999.90;;;;;;;;;;4948620;28;20035;-76
2023/09/28 13:28:41;;;;;;;1999.90;999.90;;;;;;;;;;4953847;29;20031;-72
2023/09/28 13:31:08;;;;;;;1999.90;999.90;;;;;;;;;;4954531;29;20039;-69
2023/09/28 13:33:37;;;;;;;1999.90;999.90;;;;;;;;;;4964957;28;20057;-74
2023/09/28 13:36:06;;;;;;;1999.90;999.90;;;;;;;;;;4972893;28;20457;-73
2023/09/28 13:38:35;;;;;;;1999.90;999.90;;;;;;;;;;4972480;28;20015;-73
2023/09/28 13:41:01;;;;;;;1999.90;999.90;;;;;;;;;;4972364;28;20090;-74